< Typhoon 196313 1963 Season Typhoon 196315 >
Typhoon 196314 (GLORIA)
General InformationTrack Information on Google Maps || Disaster Info.ResourceGoogle EarthGE AnimationAtom FeedGeoJSON
Detalied Best Track (Time Zone = UTC)
Year Month Day Hour Lat. Long. Pressure (hPa) Wind (kt) Class Image Chart
1963 9 3 18 18.0 145.0 1005 0 2 -- Chart
1963 9 4 00 17.6 144.0 1006 0 2 -- Chart
1963 9 4 06 17.5 143.2 1004 0 2 -- Chart
1963 9 4 12 17.3 142.4 1004 0 2 -- Chart
1963 9 4 18 17.7 141.7 1004 0 2 -- Chart
1963 9 5 00 18.1 140.8 1004 0 2 -- Chart
1963 9 5 06 18.0 140.0 1002 0 2 -- Chart
1963 9 5 12 17.9 139.2 1000 0 2 -- Chart
1963 9 5 18 18.0 138.5 1000 0 2 -- Chart
1963 9 6 00 18.1 137.9 996 0 2 -- Chart
1963 9 6 06 18.1 137.4 995 0 9 -- Chart
1963 9 6 12 18.0 137.0 990 0 9 -- Chart
1963 9 6 18 18.0 136.6 985 0 9 -- Chart
1963 9 7 00 18.2 136.0 980 0 9 -- Chart
1963 9 7 06 18.8 134.8 975 0 9 -- Chart
1963 9 7 12 19.0 133.9 975 0 9 -- Chart
1963 9 7 18 19.3 132.7 970 0 9 -- Chart
1963 9 8 00 19.6 131.4 956 0 9 -- Chart
1963 9 8 06 20.2 130.5 950 0 9 -- Chart
1963 9 8 12 20.7 129.7 942 0 9 -- Chart
1963 9 8 18 21.1 128.8 935 0 9 -- Chart
1963 9 9 00 21.5 128.1 930 0 9 -- Chart
1963 9 9 06 21.9 127.2 925 0 9 -- Chart
1963 9 9 12 22.5 126.6 925 0 9 -- Chart
1963 9 9 18 22.7 126.1 925 0 9 -- Chart
1963 9 10 00 23.9 125.5 925 0 9 -- Chart
1963 9 10 06 23.9 125.3 925 0 9 -- Chart
1963 9 10 12 24.4 124.5 920 0 9 -- Chart
1963 9 10 18 24.8 123.5 920 0 9 -- Chart
1963 9 11 00 25.0 122.7 930 0 9 -- Chart
1963 9 11 06 25.3 122.0 940 0 9 -- Chart
1963 9 11 12 26.1 121.6 945 0 9 -- Chart
1963 9 11 18 26.6 120.5 965 0 9 -- Chart
1963 9 12 00 26.6 120.2 976 0 9 -- Chart
1963 9 12 06 26.3 119.7 982 0 9 -- Chart
1963 9 12 12 26.2 119.5 988 0 9 -- Chart
1963 9 12 18 26.1 119.2 988 0 9 -- Chart
1963 9 13 00 25.9 119.0 990 0 9 -- Chart
1963 9 13 06 25.7 118.8 992 0 9 -- Chart
1963 9 13 12 25.5 118.4 996 0 9 -- Chart
1963 9 13 18 25.3 117.9 996 0 2 -- Chart
1963 9 14 00 25.0 117.7 998 0 2 -- Chart
1963 9 14 06 25.0 117.3 998 0 2 -- Chart
1963 9 14 12 25.0 117.0 1000 0 2 -- Chart
1963 9 14 18 25.0 116.5 1002 0 2 -- Chart
1963 9 15 00 25.0 116.2 1004 0 2 -- Chart
1963 9 15 06 25.3 115.7 1003 0 2 -- Chart
1963 9 15 12 25.7 115.3 1004 0 2 -- Chart
Japan Meteorological Agency Best Track Data | Correction Date : 1989-06-01
< Typhoon 196313 1963 Season Typhoon 196315 >

Help